Blyn, Washington
Current Conditions -  °F | °C
As of 8:53 AM on Friday 28 Nov 2014 (Local Time) from KCLM Reporting Station
Moderate Rain Moderate Rain  
Wind Chill: 39°   Ceiling: 5000
Heat Index: 44°   Visibility: 7mi
Dew Point: 40°   Wind: 10mph
Humidity: 85%   Direction: 280°W
Pressure: 29.54"   Gusts: NA
Location:  48.0015°N, 123.09°W
Report Text: KCLM 281653Z AUTO 28009KT 7SM RA OVC050 07/04 A2954 RMK AO2 SLP003 P0005 T00670044 $
Loading
Personal Weather Stations






























Interactive Weather Map New forecast layout! Learn more

10-Day Weather Forecast

Advertisements
Track Severe Weather on mobile